createdAt,value
2018-08-23T00:00:33.217Z,1015.57
2018-08-23T00:01:33.103Z,1015.54
2018-08-23T00:02:33.068Z,1015.56
2018-08-23T00:03:33.211Z,1015.55
2018-08-23T00:04:33.218Z,1015.58
2018-08-23T00:05:33.056Z,1015.59
2018-08-23T00:06:33.062Z,1015.62
2018-08-23T00:07:33.184Z,1015.61
2018-08-23T00:08:33.170Z,1015.58
2018-08-23T00:09:33.305Z,1015.63
2018-08-23T00:10:33.144Z,1015.61
2018-08-23T00:11:33.110Z,1015.61
2018-08-23T00:12:33.097Z,1015.64
2018-08-23T00:13:33.153Z,1015.64
2018-08-23T00:14:33.108Z,1015.63
2018-08-23T00:15:33.180Z,1015.64
2018-08-23T00:16:33.139Z,1015.63
2018-08-23T00:17:33.366Z,1015.66
2018-08-23T00:18:33.099Z,1015.67
2018-08-23T00:19:33.197Z,1015.67
2018-08-23T00:20:33.395Z,1015.64
2018-08-23T00:21:33.168Z,1015.66
2018-08-23T00:22:33.138Z,1015.66
2018-08-23T00:23:33.504Z,1015.66
2018-08-23T00:24:33.182Z,1015.68
2018-08-23T00:25:33.090Z,1015.67
2018-08-23T00:26:33.248Z,1015.68
2018-08-23T00:27:33.262Z,1015.69
2018-08-23T00:28:33.207Z,1015.66
2018-08-23T00:29:33.104Z,1015.67
2018-08-23T00:30:33.236Z,1015.69
2018-08-23T00:31:33.197Z,1015.68
2018-08-23T00:32:33.105Z,1015.67
2018-08-23T00:33:33.358Z,1015.7
2018-08-23T00:34:33.297Z,1015.69
2018-08-23T00:35:33.119Z,1015.67
2018-08-23T00:36:33.092Z,1015.69
2018-08-23T00:37:33.181Z,1015.68
2018-08-23T00:38:33.124Z,1015.67
2018-08-23T00:39:33.249Z,1015.68
2018-08-23T00:40:33.098Z,1015.68
2018-08-23T00:41:33.268Z,1015.69
2018-08-23T00:42:33.172Z,1015.71
2018-08-23T00:43:33.134Z,1015.7
2018-08-23T00:44:33.115Z,1015.67
2018-08-23T00:45:33.102Z,1015.68
2018-08-23T00:46:33.399Z,1015.7
2018-08-23T00:47:33.148Z,1015.72
2018-08-23T00:48:33.121Z,1015.73
2018-08-23T00:49:33.129Z,1015.72
2018-08-23T00:50:33.167Z,1015.71
2018-08-23T00:51:33.119Z,1015.66
2018-08-23T00:52:33.144Z,1015.64
2018-08-23T00:53:33.144Z,1015.63
2018-08-23T00:54:33.126Z,1015.64
2018-08-23T00:55:33.133Z,1015.63
2018-08-23T00:56:33.158Z,1015.66
2018-08-23T00:57:33.212Z,1015.66
2018-08-23T00:58:33.152Z,1015.65
2018-08-23T00:59:33.154Z,1015.65
2018-08-23T01:00:33.220Z,1015.61
2018-08-23T01:01:33.148Z,1015.59
2018-08-23T01:02:33.124Z,1015.64
2018-08-23T01:03:33.134Z,1015.6
2018-08-23T01:04:33.148Z,1015.6
2018-08-23T01:05:33.155Z,1015.59
2018-08-23T01:06:33.302Z,1015.6
2018-08-23T01:07:33.127Z,1015.57
2018-08-23T01:08:33.136Z,1015.58
2018-08-23T01:09:33.163Z,1015.56
2018-08-23T01:10:33.136Z,1015.54
2018-08-23T01:11:33.259Z,1015.55
2018-08-23T01:12:33.186Z,1015.52
2018-08-23T01:13:33.200Z,1015.58
2018-08-23T01:14:33.153Z,1015.53
2018-08-23T01:15:33.163Z,1015.56
2018-08-23T01:16:33.193Z,1015.58
2018-08-23T01:17:33.315Z,1015.56
2018-08-23T01:18:33.260Z,1015.58
2018-08-23T01:19:33.475Z,1015.54
2018-08-23T01:20:33.205Z,1015.59
2018-08-23T01:21:33.283Z,1015.55
2018-08-23T01:22:33.195Z,1015.6
2018-08-23T01:23:33.200Z,1015.61
2018-08-23T01:24:33.316Z,1015.62
2018-08-23T01:25:33.304Z,1015.58
2018-08-23T01:26:33.245Z,1015.57
2018-08-23T01:27:33.164Z,1015.57
2018-08-23T01:28:33.153Z,1015.53
2018-08-23T01:29:33.169Z,1015.54
2018-08-23T01:30:33.197Z,1015.51
2018-08-23T01:31:33.249Z,1015.55
2018-08-23T01:32:33.178Z,1015.51
2018-08-23T01:33:33.245Z,1015.51
2018-08-23T01:34:33.173Z,1015.51
2018-08-23T01:35:33.321Z,1015.51
2018-08-23T01:36:33.223Z,1015.5
2018-08-23T01:37:33.221Z,1015.47
2018-08-23T01:38:33.283Z,1015.48
2018-08-23T01:39:33.305Z,1015.49
2018-08-23T01:40:33.288Z,1015.5
2018-08-23T01:41:33.185Z,1015.46
2018-08-23T01:42:33.477Z,1015.44
2018-08-23T01:43:33.245Z,1015.42
2018-08-23T01:44:33.194Z,1015.39
2018-08-23T01:45:33.184Z,1015.39
2018-08-23T01:46:33.307Z,1015.42
2018-08-23T01:47:33.266Z,1015.37
2018-08-23T01:48:33.319Z,1015.36
2018-08-23T01:49:33.385Z,1015.37
2018-08-23T01:50:33.236Z,1015.39
2018-08-23T01:51:33.244Z,1015.39
2018-08-23T01:52:33.267Z,1015.36
2018-08-23T01:53:33.244Z,1015.38
2018-08-23T01:54:33.310Z,1015.4
2018-08-23T01:55:33.257Z,1015.41
2018-08-23T01:56:33.217Z,1015.4
2018-08-23T01:57:33.345Z,1015.43
2018-08-23T01:58:33.229Z,1015.38
2018-08-23T01:59:33.421Z,1015.36
2018-08-23T02:00:33.286Z,1015.38
2018-08-23T02:01:33.268Z,1015.35
2018-08-23T02:02:33.200Z,1015.38
2018-08-23T02:03:33.265Z,1015.36
2018-08-23T02:04:33.211Z,1015.36
2018-08-23T02:05:33.295Z,1015.35
2018-08-23T02:06:33.328Z,1015.38
2018-08-23T02:07:33.247Z,1015.37
2018-08-23T02:08:33.296Z,1015.39
2018-08-23T02:09:33.256Z,1015.37
2018-08-23T02:10:33.213Z,1015.33
2018-08-23T02:11:33.277Z,1015.33
2018-08-23T02:12:33.218Z,1015.36
2018-08-23T02:13:33.238Z,1015.41
2018-08-23T02:14:33.293Z,1015.37
2018-08-23T02:15:33.236Z,1015.33
2018-08-23T02:16:33.265Z,1015.34
2018-08-23T02:17:33.259Z,1015.3
2018-08-23T02:18:33.227Z,1015.29
2018-08-23T02:19:33.323Z,1015.33
2018-08-23T02:20:33.230Z,1015.35
2018-08-23T02:21:33.245Z,1015.35
2018-08-23T02:22:33.234Z,1015.32
2018-08-23T02:23:33.258Z,1015.36
2018-08-23T02:24:33.256Z,1015.35
2018-08-23T02:25:33.296Z,1015.31
2018-08-23T02:26:33.226Z,1015.38
2018-08-23T02:27:33.247Z,1015.4
2018-08-23T02:28:33.234Z,1015.37
2018-08-23T02:29:33.243Z,1015.36
2018-08-23T02:30:33.254Z,1015.37
2018-08-23T02:31:33.275Z,1015.38
2018-08-23T02:32:33.277Z,1015.36
2018-08-23T02:33:33.379Z,1015.33
2018-08-23T02:34:33.291Z,1015.36
2018-08-23T02:35:33.255Z,1015.38
2018-08-23T02:36:33.487Z,1015.31
2018-08-23T02:37:33.345Z,1015.32
2018-08-23T02:38:33.251Z,1015.37
2018-08-23T02:39:33.247Z,1015.39
2018-08-23T02:40:33.277Z,1015.39
2018-08-23T02:41:33.289Z,1015.43
2018-08-23T02:42:33.299Z,1015.44
2018-08-23T02:43:33.379Z,1015.43
2018-08-23T02:44:33.383Z,1015.41
2018-08-23T02:45:33.303Z,1015.41
2018-08-23T02:46:34.132Z,1015.42
2018-08-23T02:47:33.393Z,1015.41
2018-08-23T02:48:33.397Z,1015.45
2018-08-23T02:49:33.433Z,1015.43
2018-08-23T02:50:33.625Z,1015.42
2018-08-23T02:51:33.449Z,1015.41
2018-08-23T02:52:33.353Z,1015.41
2018-08-23T02:53:33.295Z,1015.4
2018-08-23T02:54:33.328Z,1015.46
2018-08-23T02:55:33.370Z,1015.4
2018-08-23T02:56:33.451Z,1015.37
2018-08-23T02:57:33.581Z,1015.41
2018-08-23T02:58:33.307Z,1015.36
2018-08-23T02:59:33.396Z,1015.42
2018-08-23T03:00:33.471Z,1015.39
2018-08-23T03:01:33.316Z,1015.38
2018-08-23T03:02:33.446Z,1015.43
2018-08-23T03:03:33.284Z,1015.41
2018-08-23T03:04:33.708Z,1015.43
2018-08-23T03:05:33.386Z,1015.42
2018-08-23T03:06:33.317Z,1015.41
2018-08-23T03:07:33.626Z,1015.46
2018-08-23T03:08:33.361Z,1015.5
2018-08-23T03:09:33.392Z,1015.49
2018-08-23T03:10:33.320Z,1015.49
2018-08-23T03:11:33.328Z,1015.51
2018-08-23T03:12:33.323Z,1015.51
2018-08-23T03:13:33.328Z,1015.52
2018-08-23T03:14:33.324Z,1015.51
2018-08-23T03:15:33.355Z,1015.53
2018-08-23T03:16:33.436Z,1015.55
2018-08-23T03:17:33.316Z,1015.5
2018-08-23T03:18:33.322Z,1015.48
2018-08-23T03:19:33.436Z,1015.48
2018-08-23T03:20:33.358Z,1015.52
2018-08-23T03:21:33.334Z,1015.46
2018-08-23T03:22:33.367Z,1015.48
2018-08-23T03:23:33.359Z,1015.46
2018-08-23T03:24:33.718Z,1015.44
2018-08-23T03:25:33.332Z,1015.41
2018-08-23T03:26:33.328Z,1015.4
2018-08-23T03:27:33.326Z,1015.42
2018-08-23T03:28:33.383Z,1015.39
2018-08-23T03:29:33.721Z,1015.43
2018-08-23T03:30:33.350Z,1015.42
2018-08-23T03:31:33.495Z,1015.4
2018-08-23T03:32:33.336Z,1015.42
2018-08-23T03:33:33.337Z,1015.43
2018-08-23T03:34:33.674Z,1015.39
2018-08-23T03:35:33.355Z,1015.43
2018-08-23T03:36:33.414Z,1015.39
2018-08-23T03:37:33.353Z,1015.4
2018-08-23T03:38:33.340Z,1015.41
2018-08-23T03:39:33.343Z,1015.38
2018-08-23T03:40:33.341Z,1015.39
2018-08-23T03:41:33.335Z,1015.37
2018-08-23T03:42:33.360Z,1015.33
2018-08-23T03:43:33.362Z,1015.33
2018-08-23T03:44:33.377Z,1015.35
2018-08-23T03:45:33.348Z,1015.31
2018-08-23T03:46:33.334Z,1015.32
2018-08-23T03:47:33.350Z,1015.3
2018-08-23T03:48:33.365Z,1015.28
2018-08-23T03:49:33.334Z,1015.3
2018-08-23T03:50:33.412Z,1015.35
2018-08-23T03:51:33.421Z,1015.29
2018-08-23T03:52:33.734Z,1015.29
2018-08-23T03:53:33.417Z,1015.27
2018-08-23T03:54:33.357Z,1015.23
2018-08-23T03:55:33.442Z,1015.25
2018-08-23T03:56:33.728Z,1015.26
2018-08-23T03:57:33.353Z,1015.28
2018-08-23T03:58:33.354Z,1015.28
2018-08-23T03:59:33.505Z,1015.34
2018-08-23T04:00:33.369Z,1015.3
2018-08-23T04:01:33.450Z,1015.31
2018-08-23T04:02:33.437Z,1015.35
2018-08-23T04:03:33.395Z,1015.31
2018-08-23T04:04:33.412Z,1015.36
2018-08-23T04:05:33.394Z,1015.37
2018-08-23T04:06:33.389Z,1015.36
2018-08-23T04:07:33.419Z,1015.38
2018-08-23T04:08:33.413Z,1015.4
2018-08-23T04:09:33.431Z,1015.44
2018-08-23T04:10:33.622Z,1015.39
2018-08-23T04:11:33.441Z,1015.37
2018-08-23T04:12:33.444Z,1015.41
2018-08-23T04:13:33.395Z,1015.39
2018-08-23T04:14:33.401Z,1015.41
2018-08-23T04:15:33.428Z,1015.42
2018-08-23T04:16:33.375Z,1015.42
2018-08-23T04:17:33.452Z,1015.46
2018-08-23T04:18:33.379Z,1015.43
2018-08-23T04:19:33.457Z,1015.47
2018-08-23T04:20:33.394Z,1015.5
2018-08-23T04:21:33.398Z,1015.53
2018-08-23T04:22:33.492Z,1015.5
2018-08-23T04:23:33.416Z,1015.48
2018-08-23T04:24:33.405Z,1015.54
2018-08-23T04:25:33.407Z,1015.53
2018-08-23T04:26:33.400Z,1015.56
2018-08-23T04:27:34.032Z,1015.58
2018-08-23T04:28:33.431Z,1015.62
2018-08-23T04:29:33.491Z,1015.6
2018-08-23T04:30:33.388Z,1015.63
2018-08-23T04:31:33.573Z,1015.59
2018-08-23T04:32:33.422Z,1015.6
2018-08-23T04:33:33.427Z,1015.6
2018-08-23T04:34:33.590Z,1015.59
2018-08-23T04:35:33.402Z,1015.64
2018-08-23T04:36:33.553Z,1015.65
2018-08-23T04:37:33.604Z,1015.59
2018-08-23T04:38:33.467Z,1015.58
2018-08-23T04:39:33.666Z,1015.61
2018-08-23T04:40:33.446Z,1015.58
2018-08-23T04:41:33.506Z,1015.61
2018-08-23T04:42:33.687Z,1015.6
2018-08-23T04:43:33.693Z,1015.54
2018-08-23T04:44:33.472Z,1015.61
2018-08-23T04:45:33.521Z,1015.59
2018-08-23T04:46:33.704Z,1015.62
2018-08-23T04:47:34.078Z,1015.6
2018-08-23T04:48:33.609Z,1015.59
2018-08-23T04:49:33.703Z,1015.61
2018-08-23T04:50:33.463Z,1015.58
2018-08-23T04:51:33.493Z,1015.58
2018-08-23T04:52:33.464Z,1015.54
2018-08-23T04:53:33.435Z,1015.56
2018-08-23T04:54:33.458Z,1015.52
2018-08-23T04:55:33.555Z,1015.53
2018-08-23T04:56:33.467Z,1015.52
2018-08-23T04:57:33.515Z,1015.53
2018-08-23T04:58:33.492Z,1015.49
2018-08-23T04:59:33.475Z,1015.53
2018-08-23T05:00:33.532Z,1015.55
2018-08-23T05:01:33.577Z,1015.48
2018-08-23T05:02:33.543Z,1015.47
2018-08-23T05:03:33.448Z,1015.5
2018-08-23T05:04:34.263Z,1015.57
2018-08-23T05:05:33.552Z,1015.54
2018-08-23T05:06:33.492Z,1015.59
2018-08-23T05:07:33.481Z,1015.6
2018-08-23T05:08:34.050Z,1015.57
2018-08-23T05:09:33.552Z,1015.58
2018-08-23T05:10:33.508Z,1015.61
2018-08-23T05:11:33.526Z,1015.61
2018-08-23T05:12:33.509Z,1015.64
2018-08-23T05:13:33.639Z,1015.67
2018-08-23T05:14:33.695Z,1015.68
2018-08-23T05:15:33.712Z,1015.67
2018-08-23T05:16:33.472Z,1015.65
2018-08-23T05:17:33.624Z,1015.66
2018-08-23T05:18:33.606Z,1015.7
2018-08-23T05:19:34.466Z,1015.68
2018-08-23T05:20:33.542Z,1015.65
2018-08-23T05:21:34.244Z,1015.69
2018-08-23T05:22:33.556Z,1015.66
2018-08-23T05:23:33.583Z,1015.69
2018-08-23T05:24:33.716Z,1015.72
2018-08-23T05:25:33.601Z,1015.68
2018-08-23T05:26:33.512Z,1015.67
2018-08-23T05:27:33.703Z,1015.69
2018-08-23T05:28:33.558Z,1015.69
2018-08-23T05:29:33.520Z,1015.72
2018-08-23T05:30:33.578Z,1015.69
2018-08-23T05:31:33.822Z,1015.72
2018-08-23T05:32:33.715Z,1015.68
2018-08-23T05:33:33.514Z,1015.66
2018-08-23T05:34:33.544Z,1015.65
2018-08-23T05:35:33.803Z,1015.66
2018-08-23T05:36:33.509Z,1015.65
2018-08-23T05:37:34.170Z,1015.66
2018-08-23T05:38:33.640Z,1015.66
2018-08-23T05:39:33.622Z,1015.62
2018-08-23T05:40:33.648Z,1015.62
2018-08-23T05:41:33.531Z,1015.64
2018-08-23T05:42:33.543Z,1015.62
2018-08-23T05:43:34.343Z,1015.63
2018-08-23T05:44:33.662Z,1015.67
2018-08-23T05:45:33.504Z,1015.68
2018-08-23T05:46:33.601Z,1015.64
2018-08-23T05:47:33.606Z,1015.67
2018-08-23T05:48:33.975Z,1015.67
2018-08-23T05:49:33.719Z,1015.67
2018-08-23T05:50:34.305Z,1015.66
2018-08-23T05:51:33.560Z,1015.68
2018-08-23T05:52:33.729Z,1015.61
2018-08-23T05:53:33.682Z,1015.58
2018-08-23T05:54:33.977Z,1015.61
2018-08-23T05:55:33.703Z,1015.62
2018-08-23T05:56:33.728Z,1015.56
2018-08-23T05:57:33.563Z,1015.59
2018-08-23T05:58:33.553Z,1015.62
2018-08-23T05:59:33.813Z,1015.61
2018-08-23T06:00:33.728Z,1015.6
2018-08-23T06:01:33.563Z,1015.64
2018-08-23T06:02:33.658Z,1015.61
2018-08-23T06:03:33.545Z,1015.6
2018-08-23T06:04:33.553Z,1015.61
2018-08-23T06:05:33.524Z,1015.58
2018-08-23T06:06:33.591Z,1015.59
2018-08-23T06:07:33.952Z,1015.59
2018-08-23T06:08:33.583Z,1015.59
2018-08-23T06:09:33.674Z,1015.58
2018-08-23T06:10:33.667Z,1015.51
2018-08-23T06:11:33.515Z,1015.52
2018-08-23T06:12:33.593Z,1015.52
2018-08-23T06:13:33.524Z,1015.48
2018-08-23T06:14:33.518Z,1015.48
2018-08-23T06:15:33.631Z,1015.5
2018-08-23T06:16:33.532Z,1015.47
2018-08-23T06:17:33.651Z,1015.45
2018-08-23T06:18:33.693Z,1015.44
2018-08-23T06:19:33.562Z,1015.44
2018-08-23T06:20:33.549Z,1015.41
2018-08-23T06:21:33.555Z,1015.44
2018-08-23T06:22:33.626Z,1015.42
2018-08-23T06:23:33.576Z,1015.41
2018-08-23T06:24:33.560Z,1015.41
2018-08-23T06:25:33.522Z,1015.37
2018-08-23T06:26:33.793Z,1015.37
2018-08-23T06:27:33.951Z,1015.36
2018-08-23T06:28:33.523Z,1015.39
2018-08-23T06:29:33.572Z,1015.36
2018-08-23T06:30:34.650Z,1015.43
2018-08-23T06:31:34.103Z,1015.43
2018-08-23T06:32:33.590Z,1015.44
2018-08-23T06:33:34.518Z,1015.41
2018-08-23T06:34:33.579Z,1015.42
2018-08-23T06:35:33.604Z,1015.39
2018-08-23T06:36:33.676Z,1015.36
2018-08-23T06:37:33.718Z,1015.34
2018-08-23T06:38:37.710Z,1015.33
2018-08-23T06:39:33.717Z,1015.35
2018-08-23T06:40:33.861Z,1015.35
2018-08-23T06:41:33.560Z,1015.4
2018-08-23T06:42:33.680Z,1015.41
2018-08-23T06:43:33.887Z,1015.44
2018-08-23T06:44:33.804Z,1015.39
2018-08-23T06:45:33.673Z,1015.37
2018-08-23T06:46:33.666Z,1015.35
2018-08-23T06:47:33.718Z,1015.32
2018-08-23T06:48:33.914Z,1015.3
2018-08-23T06:49:34.232Z,1015.26
2018-08-23T06:50:33.937Z,1015.25
2018-08-23T06:51:33.708Z,1015.25
2018-08-23T06:52:33.576Z,1015.27
2018-08-23T06:53:33.573Z,1015.26
2018-08-23T06:54:33.674Z,1015.28
2018-08-23T06:55:33.630Z,1015.3
2018-08-23T06:56:33.683Z,1015.3
2018-08-23T06:57:33.935Z,1015.29
2018-08-23T06:58:33.619Z,1015.31
2018-08-23T06:59:33.598Z,1015.35
2018-08-23T07:00:33.608Z,1015.4
2018-08-23T07:01:33.635Z,1015.35
2018-08-23T07:02:33.615Z,1015.32
2018-08-23T07:03:33.929Z,1015.29
2018-08-23T07:04:33.650Z,1015.29
2018-08-23T07:05:33.914Z,1015.34
2018-08-23T07:06:33.704Z,1015.33
2018-08-23T07:07:33.736Z,1015.35
2018-08-23T07:08:33.683Z,1015.32
2018-08-23T07:09:33.604Z,1015.33
2018-08-23T07:10:33.754Z,1015.33
2018-08-23T07:11:33.741Z,1015.3
2018-08-23T07:12:33.641Z,1015.3
2018-08-23T07:13:33.648Z,1015.25
2018-08-23T07:14:33.615Z,1015.24
2018-08-23T07:15:33.668Z,1015.23
2018-08-23T07:16:33.687Z,1015.22
2018-08-23T07:17:34.038Z,1015.2
2018-08-23T07:18:33.673Z,1015.18
2018-08-23T07:19:33.652Z,1015.24
2018-08-23T07:20:33.684Z,1015.24
2018-08-23T07:21:33.645Z,1015.25
2018-08-23T07:22:34.068Z,1015.25
2018-08-23T07:23:33.713Z,1015.28
2018-08-23T07:24:33.971Z,1015.27
2018-08-23T07:25:33.722Z,1015.31
2018-08-23T07:26:33.812Z,1015.3
2018-08-23T07:27:33.713Z,1015.27
2018-08-23T07:28:33.659Z,1015.3
2018-08-23T07:29:33.648Z,1015.32
2018-08-23T07:30:33.634Z,1015.31
2018-08-23T07:31:33.633Z,1015.36
2018-08-23T07:32:34.764Z,1015.38
2018-08-23T07:33:35.270Z,1015.39
2018-08-23T07:34:33.646Z,1015.41
2018-08-23T07:35:34.138Z,1015.45
2018-08-23T07:36:33.627Z,1015.45
2018-08-23T07:37:33.610Z,1015.48
2018-08-23T07:38:33.633Z,1015.47
2018-08-23T07:39:35.981Z,1015.49
2018-08-23T07:40:33.656Z,1015.46
2018-08-23T07:41:33.622Z,1015.46
2018-08-23T07:42:35.195Z,1015.44
2018-08-23T07:43:33.730Z,1015.48
2018-08-23T07:44:33.733Z,1015.46
2018-08-23T07:45:34.195Z,1015.48
2018-08-23T07:46:33.664Z,1015.48
2018-08-23T07:47:33.736Z,1015.49
2018-08-23T07:48:33.847Z,1015.5
2018-08-23T07:49:35.997Z,1015.5
2018-08-23T07:50:33.677Z,1015.48
2018-08-23T07:51:33.651Z,1015.44
2018-08-23T07:52:34.106Z,1015.49
2018-08-23T07:53:33.651Z,1015.46
2018-08-23T07:54:33.734Z,1015.41
2018-08-23T07:55:33.669Z,1015.42
2018-08-23T07:56:34.906Z,1015.39
2018-08-23T07:57:33.755Z,1015.44
2018-08-23T07:58:33.667Z,1015.43
2018-08-23T07:59:33.640Z,1015.43
2018-08-23T08:00:33.936Z,1015.44
2018-08-23T08:01:35.306Z,1015.44
2018-08-23T08:02:33.698Z,1015.42
2018-08-23T08:03:33.788Z,1015.41
2018-08-23T08:04:34.025Z,1015.41
2018-08-23T08:05:33.664Z,1015.42
2018-08-23T08:06:33.669Z,1015.36
2018-08-23T08:07:33.720Z,1015.38
2018-08-23T08:08:33.853Z,1015.34
2018-08-23T08:09:33.675Z,1015.35
2018-08-23T08:10:34.376Z,1015.36
2018-08-23T08:11:33.670Z,1015.34
2018-08-23T08:12:33.657Z,1015.36
2018-08-23T08:13:33.679Z,1015.33
2018-08-23T08:14:33.710Z,1015.32
2018-08-23T08:15:33.914Z,1015.33
2018-08-23T08:16:33.990Z,1015.34
2018-08-23T08:17:34.037Z,1015.36
2018-08-23T08:18:33.993Z,1015.37
2018-08-23T08:19:33.809Z,1015.34
2018-08-23T08:20:33.819Z,1015.36
2018-08-23T08:21:34.122Z,1015.36
2018-08-23T08:22:33.688Z,1015.31
2018-08-23T08:23:33.851Z,1015.31
2018-08-23T08:24:33.678Z,1015.35
2018-08-23T08:25:33.852Z,1015.3
2018-08-23T08:26:33.881Z,1015.35
2018-08-23T08:27:33.961Z,1015.34
2018-08-23T08:28:33.872Z,1015.33
2018-08-23T08:29:33.876Z,1015.32
2018-08-23T08:30:33.997Z,1015.31
2018-08-23T08:31:33.894Z,1015.33
2018-08-23T08:32:34.161Z,1015.35
2018-08-23T08:33:34.045Z,1015.3
2018-08-23T08:34:34.425Z,1015.31
2018-08-23T08:35:33.945Z,1015.32
2018-08-23T08:36:34.028Z,1015.27
2018-08-23T08:37:35.882Z,1015.28
2018-08-23T08:38:33.950Z,1015.28
2018-08-23T08:39:33.947Z,1015.3
2018-08-23T08:40:33.951Z,1015.31
2018-08-23T08:41:33.858Z,1015.32
2018-08-23T08:42:34.073Z,1015.32
2018-08-23T08:43:34.081Z,1015.31
2018-08-23T08:44:33.779Z,1015.23
2018-08-23T08:45:34.123Z,1015.29
2018-08-23T08:46:33.999Z,1015.31
2018-08-23T08:47:34.263Z,1015.27
2018-08-23T08:48:34.439Z,1015.28
2018-08-23T08:49:33.849Z,1015.24
2018-08-23T08:50:34.229Z,1015.26
2018-08-23T08:51:35.008Z,1015.27
2018-08-23T08:52:33.930Z,1015.29
2018-08-23T08:53:33.952Z,1015.3
2018-08-23T08:54:33.849Z,1015.26
2018-08-23T08:55:33.851Z,1015.25
2018-08-23T08:56:33.762Z,1015.21
2018-08-23T08:57:34.369Z,1015.23
2018-08-23T08:58:33.876Z,1015.2
2018-08-23T08:59:33.982Z,1015.21
2018-08-23T09:00:33.893Z,1015.17
2018-08-23T09:01:33.896Z,1015.2
2018-08-23T09:02:33.811Z,1015.16
2018-08-23T09:03:33.813Z,1015.15
2018-08-23T09:04:34.040Z,1015.14
2018-08-23T09:05:33.921Z,1015.15
2018-08-23T09:06:33.967Z,1015.12
2018-08-23T09:07:33.747Z,1015.14
2018-08-23T09:08:33.847Z,1015.13
2018-08-23T09:09:33.979Z,1015.13
2018-08-23T09:10:33.749Z,1015.07
2018-08-23T09:11:33.872Z,1015.09
2018-08-23T09:12:33.833Z,1015.09
2018-08-23T09:13:33.802Z,1015.06
2018-08-23T09:14:34.603Z,1015.09
2018-08-23T09:15:35.151Z,1015.09
2018-08-23T09:16:33.959Z,1015.05
2018-08-23T09:17:33.788Z,1015.07
2018-08-23T09:18:34.236Z,1015.07
2018-08-23T09:19:34.578Z,1015.05
2018-08-23T09:20:34.255Z,1015.04
2018-08-23T09:21:35.328Z,1015.04
2018-08-23T09:22:33.760Z,1015.06
2018-08-23T09:23:34.098Z,1015.02
2018-08-23T09:24:33.934Z,1015.02
2018-08-23T09:25:34.082Z,1014.99
2018-08-23T09:26:34.035Z,1015.01
2018-08-23T09:27:34.186Z,1015.01
2018-08-23T09:28:33.898Z,1014.95
2018-08-23T09:29:34.195Z,1014.99
2018-08-23T09:30:33.824Z,1014.99
2018-08-23T09:31:33.812Z,1014.94
2018-08-23T09:32:33.767Z,1014.95
2018-08-23T09:33:33.910Z,1014.95
2018-08-23T09:34:33.763Z,1014.97
2018-08-23T09:35:33.936Z,1014.91
2018-08-23T09:36:34.011Z,1014.94
2018-08-23T09:37:34.071Z,1014.97
2018-08-23T09:38:33.947Z,1014.94
2018-08-23T09:39:33.873Z,1014.93
2018-08-23T09:40:33.839Z,1014.9
2018-08-23T09:41:34.076Z,1014.89
2018-08-23T09:42:34.034Z,1014.88
2018-08-23T09:43:34.296Z,1014.86
2018-08-23T09:44:34.601Z,1014.85
2018-08-23T09:45:33.921Z,1014.87
2018-08-23T09:46:34.061Z,1014.86
2018-08-23T09:47:33.941Z,1014.87
2018-08-23T09:48:34.124Z,1014.86
2018-08-23T09:49:33.899Z,1014.83
2018-08-23T09:50:34.166Z,1014.83
2018-08-23T09:51:33.959Z,1014.84
2018-08-23T09:52:34.072Z,1014.77
2018-08-23T09:53:34.555Z,1014.78
2018-08-23T09:54:34.039Z,1014.79
2018-08-23T09:55:34.067Z,1014.74
2018-08-23T09:56:34.099Z,1014.71
2018-08-23T09:57:34.023Z,1014.66
2018-08-23T09:58:34.489Z,1014.68
2018-08-23T09:59:33.801Z,1014.62
2018-08-23T10:00:34.046Z,1014.65
2018-08-23T10:01:33.949Z,1014.63
2018-08-23T10:02:34.301Z,1014.65
2018-08-23T10:03:33.998Z,1014.64
2018-08-23T10:04:34.008Z,1014.6
2018-08-23T10:05:33.963Z,1014.62
2018-08-23T10:06:33.847Z,1014.64
2018-08-23T10:07:33.841Z,1014.61
2018-08-23T10:08:33.903Z,1014.56
2018-08-23T10:09:33.956Z,1014.57
2018-08-23T10:10:33.944Z,1014.54
2018-08-23T10:11:34.024Z,1014.53
2018-08-23T10:12:33.894Z,1014.53
2018-08-23T10:13:33.931Z,1014.53
2018-08-23T10:14:33.818Z,1014.54
2018-08-23T10:15:33.907Z,1014.58
2018-08-23T10:16:33.861Z,1014.57
2018-08-23T10:17:34.013Z,1014.56
2018-08-23T10:18:33.875Z,1014.49
2018-08-23T10:19:33.919Z,1014.52
2018-08-23T10:20:34.160Z,1014.48
2018-08-23T10:21:34.150Z,1014.51
2018-08-23T10:22:33.907Z,1014.48
2018-08-23T10:23:33.946Z,1014.54
2018-08-23T10:24:34.055Z,1014.5
2018-08-23T10:25:33.822Z,1014.51
2018-08-23T10:26:34.201Z,1014.49
2018-08-23T10:27:33.931Z,1014.46
2018-08-23T10:28:33.876Z,1014.5
2018-08-23T10:29:33.914Z,1014.5
2018-08-23T10:30:33.884Z,1014.47
2018-08-23T10:31:34.317Z,1014.48
2018-08-23T10:32:34.013Z,1014.47
2018-08-23T10:33:33.978Z,1014.45
2018-08-23T10:34:34.052Z,1014.46
2018-08-23T10:35:34.022Z,1014.44
2018-08-23T10:36:33.930Z,1014.41
2018-08-23T10:37:33.850Z,1014.44
2018-08-23T10:38:34.159Z,1014.39
2018-08-23T10:39:33.970Z,1014.4
2018-08-23T10:40:33.961Z,1014.35
2018-08-23T10:41:34.122Z,1014.37
2018-08-23T10:42:34.283Z,1014.36
2018-08-23T10:43:33.946Z,1014.39
2018-08-23T10:44:33.970Z,1014.36
2018-08-23T10:45:34.815Z,1014.37
2018-08-23T10:46:34.003Z,1014.3
2018-08-23T10:47:33.870Z,1014.32
2018-08-23T10:48:34.424Z,1014.34
2018-08-23T10:49:34.063Z,1014.3
2018-08-23T10:50:34.136Z,1014.28
2018-08-23T10:51:33.971Z,1014.27
2018-08-23T10:52:33.859Z,1014.3
2018-08-23T10:53:34.033Z,1014.27
2018-08-23T10:54:35.079Z,1014.26
2018-08-23T10:55:33.969Z,1014.28
2018-08-23T10:56:34.478Z,1014.22
2018-08-23T10:57:33.944Z,1014.28
2018-08-23T10:58:33.981Z,1014.22
2018-08-23T10:59:34.025Z,1014.26
2018-08-23T11:00:34.301Z,1014.21
2018-08-23T11:01:34.014Z,1014.17
2018-08-23T11:02:33.958Z,1014.2
2018-08-23T11:03:33.992Z,1014.16
2018-08-23T11:04:34.142Z,1014.2
2018-08-23T11:05:34.130Z,1014.16
2018-08-23T11:06:33.970Z,1014.15
2018-08-23T11:07:33.929Z,1014.15
2018-08-23T11:08:33.994Z,1014.11
2018-08-23T11:09:33.977Z,1014.1
2018-08-23T11:10:33.922Z,1014.07
2018-08-23T11:11:34.068Z,1014.13
2018-08-23T11:12:33.982Z,1014.14
2018-08-23T11:13:33.953Z,1014.1
2018-08-23T11:14:34.434Z,1014.12
2018-08-23T11:15:33.964Z,1014.09
2018-08-23T11:16:34.242Z,1014.06
2018-08-23T11:17:34.338Z,1014.07
2018-08-23T11:18:33.932Z,1014.03
2018-08-23T11:19:33.915Z,1014.01
2018-08-23T11:20:34.132Z,1014.02
2018-08-23T11:21:33.929Z,1014.06
2018-08-23T11:22:34.036Z,1014.06
2018-08-23T11:23:34.258Z,1014
2018-08-23T11:24:33.953Z,1014.01
2018-08-23T11:25:34.078Z,1014
2018-08-23T11:26:34.098Z,1014
2018-08-23T11:27:34.035Z,1014.01
2018-08-23T11:28:34.315Z,1013.95
2018-08-23T11:29:34.232Z,1013.98
2018-08-23T11:30:34.024Z,1013.93
2018-08-23T11:31:33.942Z,1013.87
2018-08-23T11:32:34.014Z,1013.84
2018-08-23T11:33:34.052Z,1013.84
2018-08-23T11:34:33.925Z,1013.82
2018-08-23T11:35:34.082Z,1013.81
2018-08-23T11:36:34.161Z,1013.79
2018-08-23T11:37:33.936Z,1013.85
2018-08-23T11:38:34.019Z,1013.85
2018-08-23T11:39:34.069Z,1013.79
2018-08-23T11:40:33.930Z,1013.78
2018-08-23T11:41:33.937Z,1013.81
2018-08-23T11:42:34.165Z,1013.75
2018-08-23T11:43:33.965Z,1013.74
2018-08-23T11:44:34.105Z,1013.76
2018-08-23T11:45:34.000Z,1013.75
2018-08-23T11:46:34.200Z,1013.72
2018-08-23T11:47:34.119Z,1013.63
2018-08-23T11:48:34.122Z,1013.6
2018-08-23T11:49:34.003Z,1013.64
2018-08-23T11:50:34.040Z,1013.63
2018-08-23T11:51:34.171Z,1013.6
2018-08-23T11:52:34.109Z,1013.55
2018-08-23T11:53:34.778Z,1013.55
2018-08-23T11:54:33.994Z,1013.56
2018-08-23T11:55:33.967Z,1013.55
2018-08-23T11:56:34.182Z,1013.51
2018-08-23T11:57:34.107Z,1013.5
2018-08-23T11:58:34.031Z,1013.42
2018-08-23T11:59:33.980Z,1013.44
2018-08-23T12:00:34.024Z,1013.48
2018-08-23T12:01:34.043Z,1013.43
2018-08-23T12:02:34.056Z,1013.37
2018-08-23T12:03:34.052Z,1013.31
2018-08-23T12:04:34.022Z,1013.28
2018-08-23T12:05:34.139Z,1013.29
2018-08-23T12:06:34.222Z,1013.27
2018-08-23T12:07:34.059Z,1013.22
2018-08-23T12:08:34.060Z,1013.22